Mariposa, CA

10:22 PM PDT on October 25, 2014 (GMT -0700)
Castle | Change Station
CLOSE
Current Station
Airport
Location: Atwater,
Elevation: 187 ft
Nearby Weather Stations

Elev 187 ft 37.38 °N, 120.57 °W | Updated 7 minutes ago

Clear
Clear
55 °F
Feels Like 55 °F
N
8
Wind Variable Wind from NNW

Today
High -- | Low -- °F
--% Chance of Precip.
Yesterday
High -- | Low -- °F
Precip. -- in
7:17 AM 6:09 PM
Waxing Crescent, 6% visible
Pressure 30.11 in
Visibility 10.0 miles
Clouds Clear
Dew Point 55 °F
Humidity 100%
Rainfall 0.00 in
Snow Depth Not available.
UV 0 out of 12
Pollen 2.00 out of 12
Air Quality Not available.
Flu Activity Sporadic
METAR KMER 260515Z AUTO 34007KT 10SM CLR 13/13 A3011 RMK AO1

More Conditions Fewer Conditions

Pressure 30.11 in
Visibility 10.0 miles
Clouds Clear
Dew Point 55 °F
Humidity 100%
Rainfall 0.00 in
Snow Depth Not available.
UV 0 out of 12
Pollen 2.00 out of 12
Air Quality Not available.
Flu Activity Sporadic
METAR KMER 260515Z AUTO 34007KT 10SM CLR 13/13 A3011 RMK AO1

More Conditions Fewer Conditions

10-Day Weather Forecast

Almanac

Astronomy

Oct. 25, 2014 Rise Set
Actual Time 7:17 AM PDT 6:09 PM PDT
Civil Twilight 6:50 AM PDT 6:36 PM PDT
Nautical Twilight 6:20 AM PDT 7:06 PM PDT
Astronomical Twilight 5:49 AM PDT 7:36 PM PDT
Moon 8:59 AM PDT (10/25) 7:38 PM PDT (10/25)
Length of Visible Light 11h 45m
Length of Day
10h 51m
Tomorrow will be 2m 12s shorter.
Waxing Crescent, 6% of the Moon is Illuminated
Oct 26
Waxing Crescent
Oct 30
First Quarter
Nov 6
Full
Nov 14
Last Quarter
Nov 22
New

Yesterday's Extremes

State Highs State Lows

Community

WunderPhotos

Upload Photos

1,765,112 photos uploaded!

Nearby

Snow Depth

Station Depth Elevation
Virginia Lakes Ridge 0 in 9200 ft
Leavitt Lake 1 in 9400 ft
Sonora Pass 0 in 8800 ft
Poison Flat 0 in 7900 ft
Ebbetts Pass 2 in 8700 ft

Earthquake Activity

City Distance Mag. Time & Date
Lone Pine, California 138 miles 3.6 7:31 AM PDT
2014-10-25
Antioch, California 111 miles 2.7 6:42 AM PDT
2014-10-25
Coalinga, California 110 miles 2.5 11:01 PM PDT
2014-10-24
Minimum magnitude displayed is 2.5.

Coastal Water Temperatures

Place Temperature
No Stations Reporting

Nearby Weather Stations